createdAt,value
2023-01-08T00:03:44.262Z,4.37
2023-01-08T00:08:47.301Z,4.53
2023-01-08T00:13:49.860Z,3.60
2023-01-08T00:18:52.409Z,4.40
2023-01-08T00:23:55.116Z,4.67
2023-01-08T00:28:57.727Z,4.73
2023-01-08T00:34:00.340Z,3.90
2023-01-08T00:39:02.905Z,4.03
2023-01-08T00:44:05.619Z,4.63
2023-01-08T00:49:08.198Z,4.93
2023-01-08T00:54:13.780Z,3.80
2023-01-08T00:59:16.503Z,4.60
2023-01-08T01:04:19.058Z,3.90
2023-01-08T01:09:21.700Z,4.27
2023-01-08T01:14:24.623Z,4.47
2023-01-08T01:19:27.179Z,3.53
2023-01-08T01:24:29.736Z,4.47
2023-01-08T01:29:32.345Z,3.97
2023-01-08T01:34:35.353Z,4.47
2023-01-08T01:39:37.890Z,4.13
2023-01-08T01:44:43.100Z,3.97
2023-01-08T01:49:53.212Z,4.13
2023-01-08T01:54:56.753Z,4.43
2023-01-08T02:00:01.989Z,3.67
2023-01-08T02:05:14.283Z,3.70
2023-01-08T02:10:51.778Z,3.87
2023-01-08T02:15:58.279Z,3.90
2023-01-08T02:21:11.242Z,3.70
2023-01-08T02:26:16.179Z,3.70
2023-01-08T02:31:21.632Z,4.00
2023-01-08T02:36:40.303Z,4.57
2023-01-08T02:41:48.821Z,4.00
2023-01-08T02:46:55.088Z,5.00
2023-01-08T02:52:00.485Z,4.40
2023-01-08T02:57:08.433Z,4.10
2023-01-08T03:02:12.177Z,3.53
2023-01-08T03:07:15.259Z,3.67
2023-01-08T03:12:21.300Z,3.30
2023-01-08T03:17:31.765Z,4.10
2023-01-08T03:22:38.245Z,3.63
2023-01-08T03:27:45.662Z,3.13
2023-01-08T03:32:51.152Z,4.03
2023-01-08T03:38:03.590Z,4.53
2023-01-08T03:43:06.282Z,3.63
2023-01-08T03:48:10.169Z,3.90
2023-01-08T03:53:13.063Z,4.07
2023-01-08T03:58:15.620Z,4.83
2023-01-08T04:03:18.890Z,3.57
2023-01-08T04:08:21.606Z,4.03
2023-01-08T04:13:24.126Z,3.20
2023-01-08T04:18:26.658Z,4.10
2023-01-08T04:23:29.227Z,3.90
2023-01-08T04:28:31.932Z,3.37
2023-01-08T04:33:34.707Z,3.87
2023-01-08T04:38:37.471Z,4.50
2023-01-08T04:43:40.086Z,4.10
2023-01-08T04:48:42.710Z,4.07
2023-01-08T04:53:46.435Z,4.07
2023-01-08T04:58:49.061Z,3.80
2023-01-08T05:04:03.790Z,4.37
2023-01-08T05:09:06.478Z,3.27
2023-01-08T05:14:09.058Z,4.00
2023-01-08T05:19:11.722Z,4.20
2023-01-08T05:24:14.347Z,3.57
2023-01-08T05:29:17.715Z,4.10
2023-01-08T05:34:20.309Z,4.07
2023-01-08T05:39:22.921Z,4.23
2023-01-08T05:44:25.494Z,4.23
2023-01-08T05:49:28.266Z,3.67
2023-01-08T05:54:30.984Z,4.30
2023-01-08T05:59:34.092Z,4.87
2023-01-08T06:04:36.726Z,3.70
2023-01-08T06:09:39.326Z,3.60
2023-01-08T06:14:41.966Z,4.20
2023-01-08T06:19:46.666Z,4.10
2023-01-08T06:24:49.203Z,4.70
2023-01-08T06:29:51.843Z,3.77
2023-01-08T06:34:54.406Z,3.63
2023-01-08T06:39:57.013Z,4.50
2023-01-08T06:44:59.579Z,4.30
2023-01-08T06:50:02.426Z,3.50
2023-01-08T06:55:06.397Z,3.80
2023-01-08T07:00:09.591Z,4.40
2023-01-08T07:05:12.468Z,3.70
2023-01-08T07:10:15.261Z,4.57
2023-01-08T07:15:17.945Z,4.10
2023-01-08T07:20:20.569Z,4.83
2023-01-08T07:25:25.259Z,4.23
2023-01-08T07:30:30.658Z,4.07
2023-01-08T07:35:33.536Z,4.17
2023-01-08T07:40:38.476Z,3.43
2023-01-08T07:45:42.371Z,3.40
2023-01-08T07:50:45.472Z,3.70
2023-01-08T07:55:48.446Z,3.90
2023-01-08T08:00:51.073Z,5.37
2023-01-08T08:05:53.974Z,4.53
2023-01-08T08:10:56.742Z,4.33
2023-01-08T08:16:04.728Z,4.10
2023-01-08T08:21:08.565Z,4.57
2023-01-08T08:26:11.623Z,3.73
2023-01-08T08:31:16.652Z,3.60
2023-01-08T08:36:23.612Z,3.77
2023-01-08T08:41:32.156Z,4.33
2023-01-08T08:46:36.109Z,3.40
2023-01-08T08:51:41.246Z,3.50
2023-01-08T08:56:50.229Z,3.73
2023-01-08T09:01:52.901Z,4.10
2023-01-08T09:06:55.591Z,3.57
2023-01-08T09:11:58.338Z,4.70
2023-01-08T09:17:00.930Z,5.00
2023-01-08T09:22:06.692Z,7.37
2023-01-08T09:27:11.141Z,5.67
2023-01-08T09:32:14.131Z,4.70
2023-01-08T09:37:16.869Z,5.27
2023-01-08T09:42:24.284Z,5.17
2023-01-08T09:47:36.484Z,4.63
2023-01-08T09:52:39.396Z,5.65
2023-01-08T09:57:43.829Z,5.00
2023-01-08T10:02:46.649Z,5.33
2023-01-08T10:07:54.939Z,4.63
2023-01-08T10:12:58.761Z,5.37
2023-01-08T10:18:04.670Z,5.63
2023-01-08T10:23:11.525Z,5.33
2023-01-08T10:28:24.215Z,4.53
2023-01-08T10:33:38.588Z,4.03
2023-01-08T10:39:21.064Z,5.60
2023-01-08T10:44:25.773Z,4.70
2023-01-08T10:49:39.525Z,4.33
2023-01-08T10:54:42.177Z,4.90
2023-01-08T10:59:44.788Z,5.77
2023-01-08T11:04:54.231Z,5.70
2023-01-08T11:10:04.015Z,5.07
2023-01-08T11:15:27.123Z,4.73
2023-01-08T11:20:36.952Z,4.57
2023-01-08T11:25:43.761Z,5.43
2023-01-08T11:30:53.850Z,4.57
2023-01-08T11:36:04.198Z,4.27
2023-01-08T11:41:12.588Z,4.75
2023-01-08T11:46:33.363Z,4.80
2023-01-08T11:52:03.790Z,4.75
2023-01-08T11:57:27.933Z,4.40
2023-01-08T12:02:56.144Z,5.20
2023-01-08T12:08:29.489Z,4.40
2023-01-08T12:14:09.407Z,5.00
2023-01-08T12:19:30.671Z,5.53
2023-01-08T12:24:39.440Z,5.20
2023-01-08T12:30:18.667Z,4.93
2023-01-08T12:35:29.433Z,5.03
2023-01-08T12:40:47.903Z,5.63
2023-01-08T12:45:54.176Z,5.83
2023-01-08T12:51:30.785Z,5.73
2023-01-08T12:56:45.529Z,5.40
2023-01-08T13:02:00.003Z,5.17
2023-01-08T13:07:05.027Z,5.23
2023-01-08T13:12:13.275Z,5.57
2023-01-08T13:17:22.427Z,5.57
2023-01-08T13:22:33.392Z,5.40
2023-01-08T13:32:49.030Z,5.33
2023-01-08T13:38:16.063Z,5.60
2023-01-08T13:43:25.832Z,6.03
2023-01-08T13:48:32.632Z,5.03
2023-01-08T13:53:35.331Z,4.33
2023-01-08T13:58:53.651Z,5.73
2023-01-08T14:03:56.254Z,5.90
2023-01-08T14:09:01.443Z,6.10
2023-01-08T14:14:04.496Z,8.50
2023-01-08T14:19:07.503Z,6.97
2023-01-08T14:24:16.618Z,7.40
2023-01-08T14:29:22.609Z,5.93
2023-01-08T14:34:29.913Z,10.80
2023-01-08T14:39:38.535Z,7.30
2023-01-08T14:44:44.479Z,8.13
2023-01-08T14:49:53.177Z,6.63
2023-01-08T14:55:00.148Z,7.00
2023-01-08T15:00:03.226Z,8.83
2023-01-08T15:05:17.926Z,9.60
2023-01-08T15:10:32.104Z,6.90
2023-01-08T15:15:41.807Z,6.87
2023-01-08T15:20:45.207Z,7.60
2023-01-08T15:25:48.064Z,7.03
2023-01-08T15:30:51.477Z,6.07
2023-01-08T15:35:54.124Z,8.13
2023-01-08T15:40:56.712Z,8.20
2023-01-08T15:45:59.625Z,8.87
2023-01-08T15:51:02.378Z,9.00
2023-01-08T15:56:05.140Z,9.20
2023-01-08T16:01:09.533Z,8.90
2023-01-08T16:06:12.150Z,9.93
2023-01-08T16:11:14.900Z,9.47
2023-01-08T16:16:17.564Z,10.57
2023-01-08T16:21:20.214Z,7.70
2023-01-08T16:26:22.872Z,7.87
2023-01-08T16:31:25.611Z,7.97
2023-01-08T16:36:28.465Z,7.97
2023-01-08T16:41:31.360Z,7.70
2023-01-08T16:46:33.939Z,7.27
2023-01-08T16:51:36.617Z,8.30
2023-01-08T16:56:39.362Z,6.87
2023-01-08T17:01:42.102Z,9.33
2023-01-08T17:06:47.030Z,9.07
2023-01-08T17:11:49.889Z,9.17
2023-01-08T17:16:52.667Z,9.43
2023-01-08T17:21:55.310Z,9.33
2023-01-08T17:26:58.491Z,9.47
2023-01-08T17:32:01.661Z,11.03
2023-01-08T17:37:04.299Z,9.83
2023-01-08T17:42:25.259Z,9.70
2023-01-08T17:52:30.173Z,8.30
2023-01-08T17:57:32.803Z,9.13
2023-01-08T18:02:36.002Z,9.50
2023-01-08T18:07:38.807Z,8.57
2023-01-08T18:12:43.677Z,9.53
2023-01-08T18:17:46.489Z,9.90
2023-01-08T18:22:49.147Z,9.30
2023-01-08T18:27:51.744Z,9.83
2023-01-08T18:32:54.464Z,8.30
2023-01-08T18:37:57.236Z,9.93
2023-01-08T18:42:59.800Z,13.10
2023-01-08T18:48:03.719Z,10.47
2023-01-08T18:53:07.784Z,8.60
2023-01-08T18:58:10.697Z,10.30
2023-01-08T19:03:13.381Z,9.30
2023-01-08T19:08:16.104Z,8.63
2023-01-08T19:13:19.342Z,8.53
2023-01-08T19:18:22.995Z,9.83
2023-01-08T19:23:25.939Z,9.77
2023-01-08T19:28:28.489Z,8.57
2023-01-08T19:33:31.503Z,9.37
2023-01-08T19:38:34.462Z,8.67
2023-01-08T19:43:43.042Z,11.23
2023-01-08T19:48:45.712Z,10.10
2023-01-08T19:53:48.462Z,9.63
2023-01-08T19:58:51.059Z,9.33
2023-01-08T20:03:54.991Z,10.87
2023-01-08T20:08:59.800Z,9.40
2023-01-08T20:14:05.400Z,9.47
2023-01-08T20:19:08.016Z,10.03
2023-01-08T20:24:15.358Z,16.00
2023-01-08T20:29:18.737Z,9.27
2023-01-08T20:34:21.339Z,8.37
2023-01-08T20:39:24.010Z,8.37
2023-01-08T20:44:26.567Z,8.47
2023-01-08T20:49:29.755Z,8.67
2023-01-08T20:54:32.386Z,8.60
2023-01-08T20:59:35.964Z,9.53
2023-01-08T21:04:41.634Z,10.17
2023-01-08T21:09:44.451Z,12.77
2023-01-08T21:14:47.066Z,10.60
2023-01-08T21:19:49.684Z,11.20
2023-01-08T21:24:52.376Z,10.67
2023-01-08T21:29:54.970Z,10.57
2023-01-08T21:34:57.634Z,10.33
2023-01-08T21:40:00.312Z,10.37
2023-01-08T21:45:21.547Z,11.40
2023-01-08T21:50:24.258Z,11.53
2023-01-08T21:55:26.883Z,11.33
2023-01-08T22:00:31.324Z,11.93
2023-01-08T22:05:33.952Z,12.23
2023-01-08T22:10:36.634Z,11.77
2023-01-08T22:15:39.231Z,11.27
2023-01-08T22:20:43.071Z,12.20
2023-01-08T22:25:45.712Z,11.20
2023-01-08T22:30:48.380Z,12.77
2023-01-08T22:35:51.087Z,11.97
2023-01-08T22:40:53.816Z,12.77
2023-01-08T22:46:00.485Z,13.37
2023-01-08T22:51:03.846Z,13.60
2023-01-08T22:56:12.552Z,12.43
2023-01-08T23:01:21.756Z,14.10
2023-01-08T23:06:26.294Z,14.03
2023-01-08T23:11:29.045Z,15.47
2023-01-08T23:16:31.690Z,15.63
2023-01-08T23:21:36.513Z,14.97
2023-01-08T23:26:39.301Z,14.33
2023-01-08T23:31:44.121Z,13.40
2023-01-08T23:36:46.836Z,14.03
2023-01-08T23:41:49.459Z,13.07
2023-01-08T23:46:52.015Z,15.13
2023-01-08T23:51:55.945Z,15.00
2023-01-08T23:56:58.675Z,15.00
